Orbital elements of FENGYUN 1C DEB
| Launched | 9 May 1999 |
| Flight ended | – |
| Launch site | Taiyuan Space Center, PRC |
| Owner | People's Republic of China |
| NORAD ID | 30021 |
| Date fetched |
Epoch osculation |
Inc. [°] |
Ecc. | RA asc node [hr] |
Arg Peri. [°] |
Mean anom [°] |
Mean motion [rev/day] |
Abs. mag |
| Date fetched |
Epoch osculation |
Inc. [°] |
Ecc. | RA asc node [hr] |
Arg Peri. [°] |
Mean anom [°] |
Mean motion [rev/day] |
Abs. mag |
| 2026 May 03 17:57 | 2026 Apr 30 14:07:18 | 98.8463 | 0.00717 | 7.5723 | 257.9758 | 219.3492 | 14.04947 | – |
| 2026 May 02 17:57 | 2026 Apr 30 14:07:18 | 98.8463 | 0.00717 | 7.5723 | 257.9758 | 219.3492 | 14.04947 | – |
| 2026 May 01 17:56 | 2026 Apr 30 14:07:18 | 98.8463 | 0.00717 | 7.5723 | 257.9758 | 219.3492 | 14.04947 | – |
| 2026 Apr 30 17:56 | 2026 Apr 30 14:07:18 | 98.8463 | 0.00717 | 7.5723 | 257.9758 | 219.3492 | 14.04947 | – |
| 2026 Apr 29 17:57 | 2026 Apr 24 12:51:48 | 98.8465 | 0.00716 | 7.1787 | 275.2379 | 219.3492 | 14.04947 | – |
| 2026 Apr 28 17:56 | 2026 Apr 24 12:51:48 | 98.8465 | 0.00716 | 7.1787 | 275.2379 | 219.3492 | 14.04947 | – |
| 2026 Apr 27 17:58 | 2026 Apr 24 12:51:48 | 98.8465 | 0.00716 | 7.1787 | 275.2379 | 219.3492 | 14.04947 | – |
| 2026 Apr 26 17:58 | 2026 Apr 24 12:51:48 | 98.8465 | 0.00716 | 7.1787 | 275.2379 | 219.3492 | 14.04947 | – |
| 2026 Apr 25 17:58 | 2026 Apr 24 12:51:48 | 98.8465 | 0.00716 | 7.1787 | 275.2379 | 219.3492 | 14.04947 | – |
| 2026 Apr 24 17:59 | 2026 Apr 24 12:51:48 | 98.8465 | 0.00716 | 7.1787 | 275.2379 | 219.3492 | 14.04947 | – |
| 2026 Apr 23 17:57 | 2026 Apr 19 06:07:27 | 98.8468 | 0.00717 | 6.8353 | 290.2326 | 219.3492 | 14.04947 | – |
| 2026 Apr 22 17:57 | 2026 Apr 19 06:07:27 | 98.8468 | 0.00717 | 6.8353 | 290.2326 | 219.3492 | 14.04947 | – |
| 2026 Apr 21 17:57 | 2026 Apr 19 06:07:27 | 98.8468 | 0.00717 | 6.8353 | 290.2326 | 219.3492 | 14.04947 | – |
| 2026 Apr 20 17:57 | 2026 Apr 19 06:07:27 | 98.8468 | 0.00717 | 6.8353 | 290.2326 | 219.3492 | 14.04947 | – |
| 2026 Apr 19 17:58 | 2026 Apr 19 06:07:27 | 98.8468 | 0.00717 | 6.8353 | 290.2326 | 219.3492 | 14.04947 | – |
| 2026 Apr 18 17:56 | 2026 Apr 13 06:16:55 | 98.8462 | 0.00720 | 6.4456 | 307.1593 | 219.3492 | 14.04947 | – |
| 2026 Apr 16 17:57 | 2026 Apr 13 06:16:55 | 98.8462 | 0.00720 | 6.4456 | 307.1593 | 219.3492 | 14.04947 | – |
| 2026 Apr 14 17:57 | 2026 Apr 13 06:16:55 | 98.8462 | 0.00720 | 6.4456 | 307.1593 | 219.3492 | 14.04947 | – |
| 2026 Apr 13 17:57 | 2026 Apr 13 06:16:55 | 98.8462 | 0.00720 | 6.4456 | 307.1593 | 219.3492 | 14.04947 | – |
| 2026 Apr 12 17:57 | 2026 Apr 08 14:00:22 | 98.8458 | 0.00721 | 6.1415 | 320.3936 | 219.3492 | 14.04947 | – |
| 2026 Apr 11 17:57 | 2026 Apr 08 14:00:22 | 98.8458 | 0.00721 | 6.1415 | 320.3936 | 219.3492 | 14.04947 | – |
| 2026 Apr 10 17:58 | 2026 Apr 08 14:00:22 | 98.8458 | 0.00721 | 6.1415 | 320.3936 | 219.3492 | 14.04947 | – |
| 2026 Apr 09 18:01 | 2026 Apr 08 14:00:22 | 98.8458 | 0.00721 | 6.1415 | 320.3936 | 219.3492 | 14.04947 | – |
| 2026 Apr 08 17:57 | 2026 Apr 08 14:00:22 | 98.8458 | 0.00721 | 6.1415 | 320.3936 | 219.3492 | 14.04947 | – |
| 2026 Apr 07 17:57 | 2026 Apr 02 05:36:42 | 98.8455 | 0.00725 | 5.7286 | 338.3921 | 219.3492 | 14.04947 | – |
| 2026 Apr 06 17:57 | 2026 Apr 02 05:36:42 | 98.8455 | 0.00725 | 5.7286 | 338.3921 | 219.3492 | 14.04947 | – |